^^
Grace C. Lehan Memorial Weather Station Historical Data
Daily Summary for January 27, 2022 Units:  Metric    English   Both
Daily Weekly Monthly Yearly
  High: Low: Average:
Temperature: -1.6 °C -13.3 °C -6.7 °C
Dew Point: -7.3 °C -16.5 °C -12.7 °C
Humidity: 84.5% 40.9% 64%
Wind Speed: 6km/h 0km/h 0.6km/h
Wind Gust: 19.3km/h - -
Wind- - SW
Pressure: 1032.4 hPa 1021.9 hPa -
Precipitation: 0 mm    
 
 
Tabular Data for January 27, 2022
Time Temperature Dew Point Pressure Wind Wind Speed Wind Gust Humidity Rainfall Rate (Hourly) solar
00:04 -9.3 °C -16.2 °C 1031 hPa Calm   11.3 km/h 57% 0 mm 0 W/m2
00:09 -9.3 °C -16.2 °C 1031 hPa Calm   1.6 km/h 57% 0 mm 0 W/m2
00:14 -9.3 °C -16.3 °C 1031 hPa Calm   1.6 km/h 57% 0 mm 0 W/m2
00:19 -9.4 °C -16.3 °C 1031 hPa Calm   1.6 km/h 57% 0 mm 0 W/m2
00:24 -9.4 °C -16.4 °C 1031 hPa Calm   1.6 km/h 57% 0 mm 0 W/m2
00:29 -9.5 °C -16.4 °C 1031 hPa Calm   1.6 km/h 57% 0 mm 0 W/m2
00:34 -9.6 °C -16.4 °C 1031 hPa Calm   1.6 km/h 57% 0 mm 0 W/m2
00:39 -9.6 °C -16.5 °C 1031 hPa Calm     57.1% 0 mm 0 W/m2
00:44 -9.7 °C -16.4 °C 1031 hPa Calm   1.6 km/h 58% 0 mm 0 W/m2
00:49 -9.7 °C -16.4 °C 1031 hPa Calm   1.6 km/h 58% 0 mm 0 W/m2
00:54 -9.8 °C -16.3 °C 1031 hPa Calm   1.6 km/h 58.9% 0 mm 0 W/m2
00:59 -9.8 °C -16.3 °C 1031 hPa Calm   1.6 km/h 59% 0 mm 0 W/m2
01:04 -9.9 °C -16.4 °C 1031 hPa Calm   1.6 km/h 59% 0 mm 0 W/m2
01:09 -9.9 °C -16.4 °C 1031 hPa Calm     59% 0 mm 0 W/m2
01:14 -10 °C -16.3 °C 1031 hPa Calm     60% 0 mm 0 W/m2
01:19 -10.1 °C -16.3 °C 1031 hPa Calm     60% 0 mm 0 W/m2
01:24 -10.2 °C -16.3 °C 1031 hPa Calm     60.8% 0 mm 0 W/m2
01:29 -10.3 °C -16.1 °C 1031.4 hPa Calm     62% 0 mm 0 W/m2
01:34 -10.4 °C -16.3 °C 1031.4 hPa Calm     62% 0 mm 0 W/m2
01:39 -10.5 °C -16.3 °C 1031.4 hPa Calm     62% 0 mm 0 W/m2
01:44 -10.6 °C -16.3 °C 1031.4 hPa Calm     62.7% 0 mm 0 W/m2
01:49 -10.6 °C -16.3 °C 1031.7 hPa Calm     62.4% 0 mm 0 W/m2
01:54 -10.6 °C -16.4 °C 1031.7 hPa Calm     62.3% 0 mm 0 W/m2
01:59 -10.6 °C -16.2 °C 1031.4 hPa Calm     63.4% 0 mm 0 W/m2
02:04 -10.7 °C -16.2 °C 1031.4 hPa Calm     64% 0 mm 0 W/m2
02:09 -10.7 °C -16.2 °C 1031.4 hPa Calm     64% 0 mm 0 W/m2
02:14 -10.8 °C -16.1 °C 1031.4 hPa Calm     65% 0 mm 0 W/m2
02:19 -10.8 °C -16.1 °C 1031.4 hPa Calm     65% 0 mm 0 W/m2
02:24 -10.9 °C -16 °C 1031.4 hPa Calm     66.3% 0 mm 0 W/m2
02:29 -11 °C -15.9 °C 1031.4 hPa Calm     67% 0 mm 0 W/m2
02:34 -11.1 °C -16 °C 1031.4 hPa Calm     67% 0 mm 0 W/m2
02:39 -11.2 °C -16 °C 1031.4 hPa Calm     67.7% 0 mm 0 W/m2
02:44 -11.3 °C -16 °C 1031.4 hPa Calm     68.2% 0 mm 0 W/m2
02:49 -11.4 °C -15.9 °C 1031.4 hPa Calm     69% 0 mm 0 W/m2
02:54 -11.4 °C -15.9 °C 1031.4 hPa Calm     69.7% 0 mm 0 W/m2
02:59 -11.6 °C -15.9 °C 1031.4 hPa Calm     70.1% 0 mm 0 W/m2
03:04 -11.6 °C -15.8 °C 1031.4 hPa Calm     71% 0 mm 0 W/m2
03:09 -11.7 °C -15.9 °C 1031.4 hPa Calm     71% 0 mm 0 W/m2
03:14 -11.8 °C -15.9 °C 1031.4 hPa Calm     71% 0 mm 0 W/m2
03:19 -11.8 °C -16 °C 1031.4 hPa Calm     71.2% 0 mm 0 W/m2
03:24 -11.9 °C -15.9 °C 1031 hPa Calm     72.4% 0 mm 0 W/m2
03:29 -11.9 °C -15.8 °C 1031.4 hPa Calm     73% 0 mm 0 W/m2
03:34 -12 °C -15.8 °C 1031.4 hPa Calm     73% 0 mm 0 W/m2
03:39 -12.1 °C -15.9 °C 1031 hPa Calm     73% 0 mm 0 W/m2
03:44 -12.1 °C -15.9 °C 1031.4 hPa Calm     73% 0 mm 0 W/m2
03:49 -12.1 °C -15.8 °C 1031.4 hPa Calm     73.5% 0 mm 0 W/m2
03:54 -12.1 °C -15.9 °C 1031.4 hPa Calm   1.6 km/h 73% 0 mm 0 W/m2
03:59 -12.2 °C -15.9 °C 1031.4 hPa NW 0.3 km/h 1.6 km/h 73.7% 0 mm 0 W/m2
04:09 -12.4 °C -15.9 °C 1031 hPa Calm     74.9% 0 mm 0 W/m2
04:14 -12.4 °C -15.9 °C 1031 hPa Calm     75% 0 mm 0 W/m2
04:19 -12.5 °C -16 °C 1031 hPa Calm     75% 0 mm 0 W/m2
04:24 -12.6 °C -16.1 °C 1031 hPa Calm     75% 0 mm 0 W/m2
04:29 -12.6 °C -16.1 °C 1031 hPa Calm     75% 0 mm 0 W/m2
04:34 -12.6 °C -16.1 °C 1031 hPa Calm     75% 0 mm 0 W/m2
04:39 -12.7 °C -16.2 °C 1031 hPa Calm     75.2% 0 mm 0 W/m2
04:44 -12.7 °C -16.1 °C 1031 hPa Calm     76% 0 mm 0 W/m2
04:49 -12.7 °C -16.1 °C 1031 hPa Calm     76% 0 mm 0 W/m2
04:54 -12.8 °C -16.1 °C 1030.7 hPa Calm     76% 0 mm 0 W/m2
04:59 -12.8 °C -16.1 °C 1031 hPa Calm     76% 0 mm 0 W/m2
05:04 -12.8 °C -16.1 °C 1031 hPa Calm     76.5% 0 mm 0 W/m2
05:09 -12.8 °C -16 °C 1031 hPa Calm     77% 0 mm 0 W/m2
05:14 -12.8 °C -16 °C 1031 hPa Calm     77% 0 mm 0 W/m2
05:19 -12.8 °C -16 °C 1031 hPa Calm     77% 0 mm 0 W/m2
05:24 -12.8 °C -16 °C 1031.4 hPa Calm     77% 0 mm 0 W/m2
05:29 -12.8 °C -16 °C 1031 hPa Calm     77% 0 mm 0 W/m2
05:34 -12.8 °C -16 °C 1031 hPa Calm     77% 0 mm 0 W/m2
05:39 -12.8 °C -16.1 °C 1031.4 hPa Calm     77% 0 mm 0 W/m2
05:44 -12.9 °C -16.1 °C 1031.4 hPa Calm     77% 0 mm 0 W/m2
05:49 -12.9 °C -16.1 °C 1031.4 hPa Calm     77% 0 mm 0 W/m2
05:54 -12.9 °C -16 °C 1031.7 hPa Calm     77.5% 0 mm 0 W/m2
05:59 -12.9 °C -15.9 °C 1031.7 hPa Calm     78% 0 mm 0 W/m2
06:04 -12.9 °C -15.9 °C 1031.7 hPa Calm     78% 0 mm 0 W/m2
06:09 -13 °C -16 °C 1031.7 hPa Calm     78% 0 mm 0 W/m2
06:14 -13.1 °C -16.1 °C 1031.7 hPa Calm     78.2% 0 mm 0 W/m2
06:19 -13.1 °C -16 °C 1031.7 hPa Calm     79% 0 mm 0 W/m2
06:24 -13.2 °C -16.1 °C 1031.7 hPa Calm     79% 0 mm 0 W/m2
06:29 -13.2 °C -16.1 °C 1032.1 hPa Calm     79% 0 mm 0 W/m2
06:34 -13.2 °C -16 °C 1032.1 hPa Calm     79.7% 0 mm 0 W/m2
06:39 -13.2 °C -15.9 °C 1032.1 hPa Calm     80% 0 mm 0 W/m2
06:44 -13.2 °C -15.9 °C 1031.7 hPa Calm     80% 0 mm 0 W/m2
06:49 -13.2 °C -15.9 °C 1031.7 hPa Calm     80% 0 mm 0 W/m2
06:54 -13.3 °C -16 °C 1031.7 hPa Calm     80% 0 mm 0 W/m2
06:59 -13.3 °C -16 °C 1031.7 hPa Calm     80% 0 mm 0 W/m2
07:04 -13.3 °C -16.1 °C 1031.7 hPa Calm     80% 0 mm 0 W/m2
07:09 -13.3 °C -16.1 °C 1031.7 hPa Calm     80% 0 mm 5 W/m2
07:14 -13.3 °C -16 °C 1031.7 hPa Calm     80.4% 0 mm 7 W/m2
07:19 -13.3 °C -15.9 °C 1032.1 hPa Calm     81% 0 mm 11 W/m2
07:24 -13.3 °C -15.9 °C 1032.1 hPa Calm     81% 0 mm 14 W/m2
07:29 -13.3 °C -15.7 °C 1032.1 hPa Calm     82% 0 mm 21 W/m2
07:34 -13.2 °C -15.6 °C 1032.1 hPa Calm     82% 0 mm 35 W/m2
07:39 -13.1 °C -15.4 °C 1031.7 hPa Calm     82% 0 mm 56 W/m2
07:44 -12.8 °C -15.1 °C 1032.1 hPa Calm     82.9% 0 mm 60 W/m2
07:49 -12.6 °C -14.6 °C 1032.1 hPa Calm     84.5% 0 mm 28 W/m2
07:54 -12.3 °C -14.7 °C 1032.1 hPa Calm     82% 0 mm 32 W/m2
07:59 -12.1 °C -14.7 °C 1032.4 hPa Calm     81.5% 0 mm 54 W/m2
08:00 -12 °C -14.6 °C 1032.1 hPa Calm     81% 0 mm 46 W/m2
08:09 -11.6 °C -14.2 °C 1032.1 hPa NW 0.2 km/h 3.2 km/h 81% 0 mm 62 W/m2
08:14 -11.3 °C -13.8 °C 1032.1 hPa Calm   3.2 km/h 82.3% 0 mm 58 W/m2
08:19 -11.2 °C -13.9 °C 1032.1 hPa Calm   3.2 km/h 79.6% 0 mm 51 W/m2
08:24 -10.9 °C -13.9 °C 1032.1 hPa Calm   3.2 km/h 79% 0 mm 223 W/m2
08:29 -10.8 °C -13.8 °C 1032.1 hPa Calm   3.2 km/h 78.3% 0 mm 229 W/m2
08:34 -10.4 °C -13.5 °C 1032.1 hPa Calm   3.2 km/h 78.2% 0 mm 216 W/m2
08:39 -9.9 °C -12.9 °C 1032.4 hPa Calm     78.6% 0 mm 253 W/m2
08:44 -9.3 °C -12.6 °C 1032.1 hPa NW 0.3 km/h 3.2 km/h 77.1% 0 mm 295 W/m2
08:49 -8.8 °C -12.4 °C 1032.1 hPa Calm   3.2 km/h 75.3% 0 mm 302 W/m2
08:54 -8.4 °C -12.3 °C 1032.1 hPa Calm   3.2 km/h 73.2% 0 mm 304 W/m2
08:59 -8 °C -12.2 °C 1032.1 hPa Calm   3.2 km/h 71.5% 0 mm 316 W/m2
09:04 -7.6 °C -12.2 °C 1032.1 hPa Calm   3.2 km/h 69.8% 0 mm 329 W/m2
09:09 -7.3 °C -12.1 °C 1032.1 hPa Calm   1.6 km/h 68.4% 0 mm 345 W/m2
09:14 -6.8 °C -11.9 °C 1032.1 hPa NW 0.5 km/h 3.2 km/h 67.4% 0 mm 352 W/m2
09:19 -6.6 °C -12.1 °C 1032.1 hPa Calm   3.2 km/h 65.1% 0 mm 366 W/m2
09:24 -6.4 °C -12.1 °C 1031.7 hPa NW 1.1 km/h 3.2 km/h 64% 0 mm 373 W/m2
09:29 -6.1 °C -11.9 °C 1031.7 hPa Calm   3.2 km/h 63.2% 0 mm 385 W/m2
09:34 -6 °C -12.1 °C 1031.7 hPa Calm   3.2 km/h 62% 0 mm 385 W/m2
09:39 -6.1 °C -12.1 °C 1031.7 hPa Calm   1.6 km/h 62% 0 mm 315 W/m2
09:44 -6.1 °C -12.2 °C 1031.4 hPa NW 0.2 km/h 3.2 km/h 61.9% 0 mm 397 W/m2
09:49 -6.2 °C -12.6 °C 1031.4 hPa Calm   3.2 km/h 60.5% 0 mm 399 W/m2
09:54 -6.4 °C -12.8 °C 1031.4 hPa Calm   3.2 km/h 60.4% 0 mm 378 W/m2
09:59 -6.4 °C -12.8 °C 1031.4 hPa Calm   3.2 km/h 60.7% 0 mm 316 W/m2
10:04 -6.5 °C -12.8 °C 1031.4 hPa Calm   3.2 km/h 61% 0 mm 225 W/m2
10:09 -6.6 °C -12.9 °C 1031.4 hPa Calm     60.6% 0 mm 294 W/m2
10:14 -6.6 °C -12.8 °C 1031 hPa Calm     61.3% 0 mm 446 W/m2
10:19 -6.3 °C -12.7 °C 1031 hPa NW 0.2 km/h 3.2 km/h 60.8% 0 mm 446 W/m2
10:24 -6.2 °C -12.7 °C 1031 hPa Calm   3.2 km/h 60% 0 mm 401 W/m2
10:29 -5.9 °C -12.4 °C 1031 hPa NW 0.3 km/h 3.2 km/h 60.1% 0 mm 406 W/m2
10:34 -5.7 °C -12.7 °C 1030.7 hPa NW 0.3 km/h 3.2 km/h 57.6% 0 mm 487 W/m2
10:39 -5.5 °C -12.6 °C 1031 hPa NW 0.2 km/h 3.2 km/h 57.2% 0 mm 496 W/m2
10:44 -5.1 °C -12.3 °C 1030.7 hPa Calm   3.2 km/h 56.8% 0 mm 519 W/m2
10:49 -4.7 °C -12.2 °C 1030.7 hPa Calm   3.2 km/h 55.6% 0 mm 524 W/m2
10:54 -4.2 °C -11.9 °C 1030.7 hPa NW 0.5 km/h 3.2 km/h 54.7% 0 mm 533 W/m2
10:59 -4 °C -12.5 °C 1030.7 hPa NW 0.5 km/h 3.2 km/h 51.6% 0 mm 538 W/m2
11:04 -4.1 °C -12.6 °C 1030.7 hPa NW 0.3 km/h 3.2 km/h 51.3% 0 mm 538 W/m2
11:09 -3.9 °C -12.6 °C 1030.4 hPa NW 0.2 km/h 3.2 km/h 51.3% 0 mm 339 W/m2
11:14 -3.9 °C -12.7 °C 1030.4 hPa NW 1 km/h 6.4 km/h 50.7% 0 mm 248 W/m2
11:19 -4.1 °C -13.1 °C 1030.4 hPa WNW 1.4 km/h 6.4 km/h 49.5% 0 mm 171 W/m2
11:24 -4.1 °C -12.9 °C 1030 hPa WNW 1.3 km/h 6.4 km/h 50.1% 0 mm 285 W/m2
11:29 -4.1 °C -13.4 °C 1030 hPa SSE 1.8 km/h 8 km/h 48.3% 0 mm 285 W/m2
11:34 -4.1 °C -13.2 °C 1029.7 hPa SSE 0.8 km/h 8 km/h 49.3% 0 mm 403 W/m2
11:39 -4.1 °C -13.6 °C 1029.7 hPa SSE 1.9 km/h 8 km/h 47.6% 0 mm 336 W/m2
11:44 -4.2 °C -13.5 °C 1029.7 hPa South 0.6 km/h 8 km/h 48.1% 0 mm 279 W/m2
11:49 -4 °C -13.1 °C 1029.3 hPa South 1.3 km/h 8 km/h 49% 0 mm 214 W/m2
11:54 -3.8 °C -13.3 °C 1029.3 hPa South 3.1 km/h 8 km/h 47.7% 0 mm 130 W/m2
11:59 -3.7 °C -13.2 °C 1029.3 hPa SSW 1.6 km/h 11.3 km/h 47.7% 0 mm 253 W/m2
12:00 -3.7 °C -13.1 °C 1029 hPa SW 3.2 km/h 11.3 km/h 48% 0 mm 144 W/m2
12:09 -3.6 °C -13.4 °C 1029 hPa SSW 1.3 km/h 4.8 km/h 46.5% 0 mm 339 W/m2
12:14 -3.5 °C -13.2 °C 1029 hPa SSW 0.8 km/h 4.8 km/h 46.8% 0 mm 406 W/m2
12:19 -3.3 °C -13.3 °C 1028.7 hPa South 1.8 km/h 11.3 km/h 46% 0 mm 163 W/m2
12:24 -3.2 °C -13.7 °C 1028.7 hPa South 2.7 km/h 11.3 km/h 44.3% 0 mm 165 W/m2
12:29 -3.1 °C -13.8 °C 1028.7 hPa SSW 2.6 km/h 11.3 km/h 43% 0 mm 216 W/m2
12:34 -2.8 °C -13.6 °C 1028.7 hPa SW 4.5 km/h 14.5 km/h 43.5% 0 mm 211 W/m2
12:39 -2.7 °C -13.5 °C 1028.3 hPa SW 5.1 km/h 14.5 km/h 43% 0 mm 125 W/m2
12:44 -2.6 °C -13.2 °C 1028.3 hPa SW 2.3 km/h 14.5 km/h 43.6% 0 mm 221 W/m2
12:49 -2.4 °C -13.2 °C 1028.3 hPa SW 1.8 km/h 14.5 km/h 43.3% 0 mm 329 W/m2
12:54 -2.3 °C -13.1 °C 1028 hPa SW 2.6 km/h 14.5 km/h 43.2% 0 mm 107 W/m2
12:58 -2.2 °C -13.1 °C 1028 hPa SW 2.4 km/h 14.5 km/h 43.1% 0 mm 438 W/m2
13:04 -2.2 °C -13.3 °C 1028 hPa SW 3.7 km/h 17.7 km/h 42.2% 0 mm 338 W/m2
13:09 -2.2 °C -13.7 °C 1028 hPa SSW 4.2 km/h 19.3 km/h 41.2% 0 mm 86 W/m2
13:14 -2.3 °C -13.4 °C 1027.7 hPa SSW 1.9 km/h 19.3 km/h 42% 0 mm 97 W/m2
13:19 -2.3 °C -13.4 °C 1027.7 hPa SSW 2.4 km/h 19.3 km/h 42% 0 mm 181 W/m2
13:24 -2.1 °C -13.3 °C 1027.7 hPa SW 5.8 km/h 19.3 km/h 42% 0 mm 181 W/m2
13:29 -1.9 °C -12.9 °C 1027.3 hPa SW 2.4 km/h 19.3 km/h 42.7% 0 mm 211 W/m2
13:34 -1.7 °C -12.9 °C 1027.3 hPa SW 4.2 km/h 19.3 km/h 42% 0 mm 246 W/m2
13:39 -1.6 °C -12.8 °C 1027.3 hPa SW 1.6 km/h 17.7 km/h 42% 0 mm 417 W/m2
13:44 -1.6 °C -13.1 °C 1027 hPa South 4.3 km/h 17.7 km/h 40.9% 0 mm 441 W/m2
13:49 -1.7 °C -13.1 °C 1027 hPa SSW 5.1 km/h 17.7 km/h 41.3% 0 mm 352 W/m2
13:54 -1.8 °C -13.3 °C 1026.6 hPa South 3.5 km/h 17.7 km/h 41% 0 mm 202 W/m2
13:59 -1.8 °C -12.7 °C 1026.6 hPa SSW 3.2 km/h 17.7 km/h 43.2% 0 mm 118 W/m2
14:04 -1.7 °C -12.4 °C 1026.6 hPa South 3.4 km/h 19.3 km/h 43.8% 0 mm 264 W/m2
14:09 -1.7 °C -12.1 °C 1026.6 hPa South 3.2 km/h 19.3 km/h 44.9% 0 mm 262 W/m2
14:14 -1.7 °C -11.8 °C 1026.6 hPa SSW 3.1 km/h 19.3 km/h 45.9% 0 mm 257 W/m2
14:19 -1.7 °C -11.6 °C 1026.3 hPa South 3.1 km/h 19.3 km/h 46.5% 0 mm 404 W/m2
14:24 -1.7 °C -11.3 °C 1026.3 hPa South 3.7 km/h 19.3 km/h 47.8% 0 mm 267 W/m2
14:29 -1.8 °C -11.2 °C 1026 hPa South 5.5 km/h 19.3 km/h 48.9% 0 mm 179 W/m2
14:34 -1.9 °C -11.1 °C 1026 hPa South 3.5 km/h 19.3 km/h 49.4% 0 mm 163 W/m2
14:39 -1.9 °C -10.7 °C 1026 hPa South 1.9 km/h 14.5 km/h 50.9% 0 mm 93 W/m2
14:44 -1.9 °C -10.6 °C 1026 hPa SSW 3.1 km/h 14.5 km/h 51.5% 0 mm 114 W/m2
14:49 -1.9 °C -10.3 °C 1026 hPa SSW 4.2 km/h 14.5 km/h 52.7% 0 mm 91 W/m2
14:54 -1.9 °C -10.3 °C 1025.6 hPa SSW 2.3 km/h 14.5 km/h 52.8% 0 mm 214 W/m2
14:59 -2 °C -10.1 °C 1025.6 hPa SW 2.9 km/h 14.5 km/h 54% 0 mm 214 W/m2
15:04 -2.1 °C -10 °C 1026 hPa SSW 1.8 km/h 14.5 km/h 54.6% 0 mm 32 W/m2
15:09 -2.1 °C -9.9 °C 1026 hPa SSW 1.9 km/h 6.4 km/h 54.9% 0 mm 32 W/m2
15:14 -2 °C -10.1 °C 1026 hPa SSW 2.4 km/h 11.3 km/h 54% 0 mm 30 W/m2
15:19 -2 °C -10.2 °C 1026 hPa South 3.1 km/h 11.3 km/h 53.3% 0 mm 30 W/m2
15:24 -2.1 °C -10.6 °C 1026 hPa SSW 2.9 km/h 11.3 km/h 52% 0 mm 28 W/m2
15:29 -2.1 °C -10.6 °C 1026 hPa SSW 1.6 km/h 11.3 km/h 52% 0 mm 28 W/m2
15:34 -2 °C -10.7 °C 1026 hPa SSW 2.9 km/h 11.3 km/h 51.5% 0 mm 26 W/m2
15:39 -1.9 °C -11.4 °C 1026 hPa SW 4.8 km/h 11.3 km/h 48.4% 0 mm 25 W/m2
15:44 -1.9 °C -11.6 °C 1026 hPa SW 6 km/h 17.7 km/h 47.5% 0 mm 25 W/m2
15:49 -1.9 °C -11.6 °C 1025.6 hPa SW 2.9 km/h 17.7 km/h 47.5% 0 mm 23 W/m2
15:54 -1.9 °C -11.7 °C 1025.6 hPa SW 4.3 km/h 17.7 km/h 47% 0 mm 23 W/m2
15:59 -1.9 °C -11.7 °C 1025.3 hPa SW 2.3 km/h 17.7 km/h 47.1% 0 mm 21 W/m2
16:09 -1.9 °C -11.7 °C 1025.6 hPa SW 1.6 km/h 4.8 km/h 47% 0 mm 19 W/m2
16:14 -1.9 °C -11.4 °C 1025.6 hPa SW 0.5 km/h 4.8 km/h 47.9% 0 mm 19 W/m2
16:19 -1.9 °C -11.4 °C 1025.3 hPa SW 2.1 km/h 11.3 km/h 48% 0 mm 18 W/m2
16:24 -1.9 °C -11.7 °C 1025.3 hPa SSW 2.9 km/h 14.5 km/h 47.3% 0 mm 16 W/m2
16:29 -2 °C -11.8 °C 1025.3 hPa South 2.9 km/h 14.5 km/h 47% 0 mm 16 W/m2
16:34 -2.1 °C -11.8 °C 1025.3 hPa South 1.9 km/h 14.5 km/h 47.5% 0 mm 14 W/m2
16:39 -2.2 °C -11.6 °C 1024.9 hPa SSW 0.3 km/h 4.8 km/h 48.5% 0 mm 11 W/m2
16:44 -2.3 °C -11.5 °C 1024.9 hPa SSW 1.1 km/h 4.8 km/h 49.2% 0 mm 7 W/m2
16:49 -2.4 °C -11.3 °C 1024.9 hPa South 1.3 km/h 4.8 km/h 50.1% 0 mm 5 W/m2
16:54 -2.5 °C -11.2 °C 1024.6 hPa SSW 1.9 km/h 9.7 km/h 51.3% 0 mm 0 W/m2
16:59 -2.7 °C -11.2 °C 1024.6 hPa South 2.6 km/h 11.3 km/h 52% 0 mm 0 W/m2
17:04 -2.8 °C -10.9 °C 1024.6 hPa SSW 1.4 km/h 11.3 km/h 53.2% 0 mm 0 W/m2
17:08 -2.8 °C -10.8 °C 1024.6 hPa SW 1 km/h 4.8 km/h 54% 0 mm 0 W/m2
17:14 -2.9 °C -10.7 °C 1024.9 hPa SW 0.8 km/h 4.8 km/h 55.1% 0 mm 0 W/m2
17:19 -2.9 °C -10.5 °C 1024.9 hPa SW 1.8 km/h 11.3 km/h 56% 0 mm 0 W/m2
17:24 -3 °C -10.6 °C 1024.9 hPa SSW 1.1 km/h 11.3 km/h 56.1% 0 mm 0 W/m2
17:29 -3.1 °C -10.4 °C 1025.3 hPa SW 3.2 km/h 11.3 km/h 57% 0 mm 0 W/m2
17:34 -3.1 °C -10.2 °C 1025.3 hPa SW 2.4 km/h 11.3 km/h 57.9% 0 mm 0 W/m2
17:39 -3.1 °C -10.2 °C 1024.9 hPa SW 0.6 km/h 9.7 km/h 58% 0 mm 0 W/m2
17:44 -3.2 °C -10 °C 1024.9 hPa SW 0.2 km/h 9.7 km/h 59% 0 mm 0 W/m2
17:49 -3.2 °C -10.1 °C 1024.9 hPa Calm   9.7 km/h 59% 0 mm 0 W/m2
17:54 -3.2 °C -10.1 °C 1024.9 hPa SW 0.2 km/h 9.7 km/h 59% 0 mm 0 W/m2
17:59 -3.3 °C -10.1 °C 1024.9 hPa SW 0.2 km/h 9.7 km/h 59.4% 0 mm 0 W/m2
18:04 -3.3 °C -10 °C 1024.9 hPa Calm   9.7 km/h 59.9% 0 mm 0 W/m2
18:09 -3.3 °C -10 °C 1024.9 hPa Calm   1.6 km/h 60% 0 mm 0 W/m2
18:14 -3.4 °C -10.1 °C 1024.6 hPa Calm   1.6 km/h 60% 0 mm 0 W/m2
18:19 -3.4 °C -10.1 °C 1024.6 hPa Calm   1.6 km/h 60% 0 mm 0 W/m2
18:24 -3.5 °C -10.2 °C 1024.6 hPa SW 0.2 km/h 1.6 km/h 60% 0 mm 0 W/m2
18:29 -3.6 °C -10.2 °C 1024.6 hPa Calm   1.6 km/h 60% 0 mm 0 W/m2
18:34 -3.6 °C -10.2 °C 1024.6 hPa Calm   1.6 km/h 60.6% 0 mm 0 W/m2
18:39 -3.7 °C -10.1 °C 1024.6 hPa SW 0.2 km/h 3.2 km/h 61% 0 mm 0 W/m2
18:44 -3.8 °C -10.2 °C 1024.6 hPa SW 0.2 km/h 3.2 km/h 61% 0 mm 0 W/m2
18:49 -3.8 °C -10.1 °C 1024.3 hPa SW 0.2 km/h 3.2 km/h 61.7% 0 mm 0 W/m2
18:54 -3.9 °C -10.1 °C 1024.6 hPa Calm   3.2 km/h 62% 0 mm 0 W/m2
18:59 -4 °C -10.2 °C 1024.6 hPa Calm   3.2 km/h 62% 0 mm 0 W/m2
19:04 -4.1 °C -10.2 °C 1024.3 hPa Calm   3.2 km/h 62.4% 0 mm 0 W/m2
19:09 -4.1 °C -10.1 °C 1024.3 hPa Calm     63% 0 mm 0 W/m2
19:14 -4.2 °C -10.1 °C 1024.3 hPa Calm   1.6 km/h 63% 0 mm 0 W/m2
19:19 -4.2 °C -10 °C 1024.3 hPa SW 0.2 km/h 1.6 km/h 63.7% 0 mm 0 W/m2
19:24 -4.2 °C -9.9 °C 1024.6 hPa Calm   1.6 km/h 64% 0 mm 0 W/m2
19:29 -4.2 °C -10 °C 1024.6 hPa Calm   1.6 km/h 64% 0 mm 0 W/m2
19:34 -4.3 °C -9.9 °C 1024.3 hPa Calm   1.6 km/h 64.6% 0 mm 0 W/m2
19:39 -4.3 °C -9.9 °C 1024.3 hPa Calm   1.6 km/h 65% 0 mm 0 W/m2
19:44 -4.4 °C -9.9 °C 1023.9 hPa SW 0.2 km/h 3.2 km/h 65% 0 mm 0 W/m2
19:49 -4.4 °C -9.9 °C 1023.9 hPa SW 0.3 km/h 4.8 km/h 65% 0 mm 0 W/m2
19:54 -4.4 °C -9.8 °C 1023.9 hPa SW 0.3 km/h 4.8 km/h 66% 0 mm 0 W/m2
19:59 -4.4 °C -9.8 °C 1023.6 hPa SW 0.2 km/h 4.8 km/h 66% 0 mm 0 W/m2
20:00 -4.4 °C -9.8 °C 1023.6 hPa Calm   4.8 km/h 66% 0 mm 0 W/m2
20:09 -4.5 °C -9.9 °C 1023.9 hPa Calm     66% 0 mm 0 W/m2
20:14 -4.6 °C -9.9 °C 1023.9 hPa Calm     66% 0 mm 0 W/m2
20:19 -4.6 °C -9.9 °C 1023.9 hPa Calm     66.7% 0 mm 0 W/m2
20:24 -4.7 °C -9.9 °C 1023.6 hPa Calm     67% 0 mm 0 W/m2
20:29 -4.8 °C -9.8 °C 1023.6 hPa Calm     67.7% 0 mm 0 W/m2
20:34 -4.8 °C -9.8 °C 1023.6 hPa Calm     68% 0 mm 0 W/m2
20:39 -4.9 °C -9.9 °C 1023.9 hPa Calm     68% 0 mm 0 W/m2
20:44 -5 °C -9.9 °C 1023.9 hPa Calm     68.1% 0 mm 0 W/m2
20:49 -5.1 °C -9.9 °C 1023.6 hPa Calm     69% 0 mm 0 W/m2
20:54 -5.2 °C -9.8 °C 1023.2 hPa SW 0.3 km/h 3.2 km/h 70.1% 0 mm 0 W/m2
20:59 -5.2 °C -9.6 °C 1023.2 hPa Calm   3.2 km/h 71% 0 mm 0 W/m2
21:04 -5.1 °C -9.4 °C 1023.2 hPa Calm   3.2 km/h 71% 0 mm 0 W/m2
21:09 -5 °C -9.4 °C 1023.2 hPa Calm     71% 0 mm 0 W/m2
21:14 -5 °C -9.4 °C 1023.2 hPa Calm     71% 0 mm 0 W/m2
21:19 -5.1 °C -9.5 °C 1022.9 hPa Calm     71% 0 mm 0 W/m2
21:24 -5.1 °C -9.5 °C 1022.9 hPa Calm     71% 0 mm 0 W/m2
21:29 -5.1 °C -9.5 °C 1022.9 hPa Calm     71.2% 0 mm 0 W/m2
21:34 -5.2 °C -9.4 °C 1023.2 hPa Calm     72% 0 mm 0 W/m2
21:39 -5.2 °C -9.4 °C 1022.9 hPa Calm     72.5% 0 mm 0 W/m2
21:44 -5.2 °C -9.2 °C 1022.6 hPa Calm     73.1% 0 mm 0 W/m2
21:49 -5.2 °C -9.1 °C 1022.9 hPa Calm     74% 0 mm 0 W/m2
21:54 -5.2 °C -9.1 °C 1022.9 hPa Calm   1.6 km/h 74% 0 mm 0 W/m2
21:59 -5.1 °C -9 °C 1022.6 hPa Calm   1.6 km/h 74% 0 mm 0 W/m2
22:04 -5.1 °C -8.9 °C 1022.6 hPa Calm   1.6 km/h 74.6% 0 mm 0 W/m2
22:09 -5 °C -8.7 °C 1022.6 hPa Calm     75% 0 mm 0 W/m2
22:14 -5 °C -8.7 °C 1022.6 hPa Calm     75% 0 mm 0 W/m2
22:19 -4.9 °C -8.7 °C 1022.6 hPa Calm     75% 0 mm 0 W/m2
22:24 -4.9 °C -8.7 °C 1022.6 hPa Calm     75% 0 mm 0 W/m2
22:29 -4.9 °C -8.7 °C 1022.6 hPa Calm     75% 0 mm 0 W/m2
22:34 -4.9 °C -8.7 °C 1022.6 hPa Calm     75% 0 mm 0 W/m2
22:39 -4.9 °C -8.7 °C 1022.6 hPa Calm     75.2% 0 mm 0 W/m2
22:44 -4.9 °C -8.6 °C 1022.6 hPa Calm     75.6% 0 mm 0 W/m2
22:49 -4.8 °C -8.4 °C 1022.6 hPa Calm     76% 0 mm 0 W/m2
22:54 -4.7 °C -8.3 °C 1022.6 hPa Calm     76.3% 0 mm 0 W/m2
22:59 -4.6 °C -8.1 °C 1022.6 hPa Calm     77% 0 mm 0 W/m2
23:00 -4.6 °C -7.9 °C 1022.2 hPa Calm     77% 0 mm 0 W/m2
23:09 -4.3 °C -7.8 °C 1022.2 hPa Calm     77% 0 mm 0 W/m2
23:14 -4.2 °C -7.6 °C 1022.6 hPa SW 0.2 km/h 1.6 km/h 77.5% 0 mm 0 W/m2
23:19 -4.1 °C -7.4 °C 1022.2 hPa Calm   1.6 km/h 77.4% 0 mm 0 W/m2
23:24 -3.9 °C -7.4 °C 1022.2 hPa Calm   1.6 km/h 77% 0 mm 0 W/m2
23:29 -3.9 °C -7.3 °C 1022.2 hPa Calm   1.6 km/h 77% 0 mm 0 W/m2
23:34 -3.9 °C -7.3 °C 1022.2 hPa Calm   1.6 km/h 77% 0 mm 0 W/m2
23:39 -3.8 °C -7.3 °C 1022.2 hPa Calm     77% 0 mm 0 W/m2
23:44 -3.8 °C -7.3 °C 1022.2 hPa Calm     76.8% 0 mm 0 W/m2
23:49 -3.9 °C -7.5 °C 1022.2 hPa Calm     76% 0 mm 0 W/m2
23:54 -3.9 °C -7.5 °C 1021.9 hPa Calm     76% 0 mm 0 W/m2
23:59 -3.9 °C -7.6 °C 1021.9 hPa SW 0.2 km/h 3.2 km/h 76% 0 mm 0 W/m2
Hartford County Weather
Compliments of Weather Underground - 2 mb